KPWTKCLM

Guest
Details From KPWT - Bremerton National
To KCLM - William R Fairchild Intl
Flight Number -
Tags Routegen
Created
Modified
Stats Distance 49 nm / 90 km
Max Altitude 0 ft / 0 m
Waypoints 2
Social Downloads 7
Likes 0
Share VATSIM

Download

Looking for another format? Having issues loading an existing format? Contact us
Advertisement - Login to hide

Notes

None

Route

KPWT KCLM

ID Type Via Altitude (ft/m) Position (lat/lon) Dist (leg/tot) Name
O KPWT APT - 0 / 0 47.48333 / -122.77138 - / 0 nm
O KCLM APT - 0 / 0 48.12104 / -123.51152 48 / 48 nm

Altitude Profile

Advertisement - Login to hide

KPWT

Details ICAO KPWT (PWT)
Name Bremerton National
Region United States
Timezone America/Los_Angeles (UTC-8.0)
Stats Elevation 444 ft / 135 m (AMSL)
Location 47.490200° -122.765000°
Runways 1
Magnetic Variation 15.477° E

METAR

KPWT 191256Z AUTO 00000KT 8SM BKN029 OVC048 04/04 A3024 RMK AO2 SLP247 T00440044

Decode

TAF

TAF KPWT 191120Z 1912/2012 VRB03KT P6SM BKN007 TEMPO 1912/1916 1/2SM FG VV002 FM191600 16005KT 3SM -RA BR BKN015 OVC050 FM192000 20005KT P6SM VCSH OVC020 FM200000 18004KT P6SM OVC025

Decode

Departure Runways

ID Width Length Bearing (true/mag) Surface Threshold Overrun Markings Lighting
01 151 ft / 46 m 5,997 ft / 1,828 m 32.69° / 17.21° ASPHALT 0 ft / 0 m 0 ft / 0 m APP EDGE THRESHOLD
19 151 ft / 46 m 5,997 ft / 1,828 m 212.70° / 197.22° ASPHALT 0 ft / 0 m 1,243 ft / 379 m PREC-APP EDGE THRESHOLD MALSR

KCLM

Details ICAO KCLM (CLM)
Name WILLIAM R FAIRCHILD INTL
Region United States
Timezone America/Los_Angeles (UTC-8.0)
Stats Elevation 291 ft / 89 m (AMSL)
Location 48.120800° -123.500000°
Runways 2
Magnetic Variation 15.743° E

METAR

KCLM 191253Z AUTO 26003KT 10SM FEW002 02/02 A3018 RMK AO2 SLP224 T00220017

Decode

TAF

TAF KCLM 191120Z 1912/2012 VRB03KT P6SM SCT003 OVC060 TEMPO 1912/1916 4SM BR OVC003 FM191800 VRB03KT 6SM -RA BR OVC025 FM200300 12003KT P6SM SCT025 OVC040 FM200800 VRB03KT P6SM SCT030 OVC040

Decode

Destination Runways

ID Width Length Bearing (true/mag) Surface Threshold Overrun Markings Lighting
08 151 ft / 46 m 6,353 ft / 1,936 m 104.61° / 88.87° ASPHALT 0 ft / 0 m 0 ft / 0 m PREC-APP EDGE THRESHOLD MALSR
13 49 ft / 15 m 3,244 ft / 989 m 147.64° / 131.89° ASPHALT 0 ft / 0 m 0 ft / 0 m APP EDGE THRESHOLD
26 151 ft / 46 m 6,353 ft / 1,936 m 284.63° / 268.89° ASPHALT 1,355 ft / 413 m 0 ft / 0 m APP EDGE THRESHOLD REIL-OMNI
31 49 ft / 15 m 3,244 ft / 989 m 327.64° / 311.90° ASPHALT 0 ft / 0 m 0 ft / 0 m APP EDGE THRESHOLD

Approach Navaids

Runway Type Ident Frequency Range Bearing (true/mag) Slope Elevation
08 GS ICLM 108.90 MHz 10 nm / 19 km 105.25° / 89.50 ° 3.00° 281 ft / 86 m (AMSL)
08 OM OM - - 104.62° / 88.88 ° - 1,069 ft / 326 m (AMSL)
08 MM MM - - 104.62° / 88.88 ° - 291 ft / 89 m (AMSL)
08 LOC-ILS ICLM 108.90 MHz 18 nm / 33 km 104.64° / 88.90 ° - 291 ft / 89 m (AMSL)

Popular Alternatives